sensor_id;sensor_type;location;lat;lon;timestamp;temperature;humidity
9383;DHT22;4731;49.708;10.816;2024-01-11T00:01:04;-5.80;99.90
9383;DHT22;4731;49.708;10.816;2024-01-11T00:03:30;-5.80;99.90
9383;DHT22;4731;49.708;10.816;2024-01-11T00:05:57;-5.80;99.90
9383;DHT22;4731;49.708;10.816;2024-01-11T00:08:25;-5.80;99.90
9383;DHT22;4731;49.708;10.816;2024-01-11T00:10:52;-5.80;99.90
9383;DHT22;4731;49.708;10.816;2024-01-11T00:13:19;-5.80;99.90
9383;DHT22;4731;49.708;10.816;2024-01-11T00:15:45;-5.80;99.90
9383;DHT22;4731;49.708;10.816;2024-01-11T00:18:12;-5.90;99.90
9383;DHT22;4731;49.708;10.816;2024-01-11T00:20:39;-5.90;99.90
9383;DHT22;4731;49.708;10.816;2024-01-11T00:23:06;-5.90;99.90
9383;DHT22;4731;49.708;10.816;2024-01-11T00:25:34;-5.90;99.90
9383;DHT22;4731;49.708;10.816;2024-01-11T00:28:02;-3.30;99.90
9383;DHT22;4731;49.708;10.816;2024-01-11T00:30:29;-5.90;99.90
9383;DHT22;4731;49.708;10.816;2024-01-11T00:32:55;-6.00;99.90
9383;DHT22;4731;49.708;10.816;2024-01-11T00:35:22;-6.00;99.90
9383;DHT22;4731;49.708;10.816;2024-01-11T00:37:49;-6.00;99.90
9383;DHT22;4731;49.708;10.816;2024-01-11T00:40:16;-6.00;99.90
9383;DHT22;4731;49.708;10.816;2024-01-11T00:42:44;-6.00;99.90
9383;DHT22;4731;49.708;10.816;2024-01-11T00:45:11;-6.10;99.90
9383;DHT22;4731;49.708;10.816;2024-01-11T00:47:38;-6.20;99.90
9383;DHT22;4731;49.708;10.816;2024-01-11T00:50:05;-6.20;99.90
9383;DHT22;4731;49.708;10.816;2024-01-11T00:52:32;-6.10;99.90
9383;DHT22;4731;49.708;10.816;2024-01-11T00:54:59;-6.10;99.90
9383;DHT22;4731;49.708;10.816;2024-01-11T00:57:26;-6.00;99.90
9383;DHT22;4731;49.708;10.816;2024-01-11T01:02:21;-6.10;99.90
9383;DHT22;4731;49.708;10.816;2024-01-11T01:04:48;-6.10;99.90
9383;DHT22;4731;49.708;10.816;2024-01-11T01:07:14;-6.10;99.90
9383;DHT22;4731;49.708;10.816;2024-01-11T01:09:41;-6.10;99.90
9383;DHT22;4731;49.708;10.816;2024-01-11T01:12:08;-4.80;99.90
9383;DHT22;4731;49.708;10.816;2024-01-11T01:14:35;-6.10;99.90
9383;DHT22;4731;49.708;10.816;2024-01-11T01:17:03;-6.20;99.90
9383;DHT22;4731;49.708;10.816;2024-01-11T01:19:30;-6.20;99.90
9383;DHT22;4731;49.708;10.816;2024-01-11T01:21:58;-6.30;99.90
9383;DHT22;4731;49.708;10.816;2024-01-11T01:24:24;-6.20;99.90
9383;DHT22;4731;49.708;10.816;2024-01-11T01:26:51;-6.30;99.90
9383;DHT22;4731;49.708;10.816;2024-01-11T01:29:18;-6.30;99.90
9383;DHT22;4731;49.708;10.816;2024-01-11T01:31:45;-6.30;99.90
9383;DHT22;4731;49.708;10.816;2024-01-11T01:34:13;-6.40;99.90
9383;DHT22;4731;49.708;10.816;2024-01-11T01:36:41;-6.40;99.90
9383;DHT22;4731;49.708;10.816;2024-01-11T01:39:07;-6.50;99.90
9383;DHT22;4731;49.708;10.816;2024-01-11T01:41:34;-6.50;99.90
9383;DHT22;4731;49.708;10.816;2024-01-11T01:44:01;-6.60;99.90
9383;DHT22;4731;49.708;10.816;2024-01-11T01:46:28;-6.50;99.90
9383;DHT22;4731;49.708;10.816;2024-01-11T01:48:57;-6.50;99.90
9383;DHT22;4731;49.708;10.816;2024-01-11T01:51:28;-5.30;99.90
9383;DHT22;4731;49.708;10.816;2024-01-11T01:53:57;-6.50;99.90
9383;DHT22;4731;49.708;10.816;2024-01-11T01:56:24;-6.50;99.90
9383;DHT22;4731;49.708;10.816;2024-01-11T01:58:52;-6.50;99.90
9383;DHT22;4731;49.708;10.816;2024-01-11T02:01:20;-6.50;99.90
9383;DHT22;4731;49.708;10.816;2024-01-11T02:03:50;-6.50;99.90
9383;DHT22;4731;49.708;10.816;2024-01-11T02:06:17;-6.80;99.90
9383;DHT22;4731;49.708;10.816;2024-01-11T02:08:46;-6.60;99.90
9383;DHT22;4731;49.708;10.816;2024-01-11T02:11:15;-6.70;99.90
9383;DHT22;4731;49.708;10.816;2024-01-11T02:13:43;-6.70;99.90
9383;DHT22;4731;49.708;10.816;2024-01-11T02:16:11;-6.70;99.90
9383;DHT22;4731;49.708;10.816;2024-01-11T02:18:39;-6.70;99.90
9383;DHT22;4731;49.708;10.816;2024-01-11T02:21:09;-6.80;99.90
9383;DHT22;4731;49.708;10.816;2024-01-11T02:23:36;-6.80;99.90
9383;DHT22;4731;49.708;10.816;2024-01-11T02:26:08;-6.80;99.90
9383;DHT22;4731;49.708;10.816;2024-01-11T02:28:35;-6.80;99.90
9383;DHT22;4731;49.708;10.816;2024-01-11T02:31:02;-6.80;99.90
9383;DHT22;4731;49.708;10.816;2024-01-11T02:33:28;-6.90;99.90
9383;DHT22;4731;49.708;10.816;2024-01-11T02:35:55;-6.90;99.90
9383;DHT22;4731;49.708;10.816;2024-01-11T02:38:22;-6.80;99.90
9383;DHT22;4731;49.708;10.816;2024-01-11T02:40:50;-6.80;99.90
9383;DHT22;4731;49.708;10.816;2024-01-11T02:43:18;-6.70;99.90
9383;DHT22;4731;49.708;10.816;2024-01-11T02:45:45;-6.80;99.90
9383;DHT22;4731;49.708;10.816;2024-01-11T02:48:12;-6.80;99.90
9383;DHT22;4731;49.708;10.816;2024-01-11T02:50:38;-6.80;99.90
9383;DHT22;4731;49.708;10.816;2024-01-11T02:53:05;-6.80;99.90
9383;DHT22;4731;49.708;10.816;2024-01-11T02:55:32;-5.00;99.90
9383;DHT22;4731;49.708;10.816;2024-01-11T02:57:59;-6.90;99.90
9383;DHT22;4731;49.708;10.816;2024-01-11T03:00:27;-6.90;99.90
9383;DHT22;4731;49.708;10.816;2024-01-11T03:02:54;-6.90;99.90
9383;DHT22;4731;49.708;10.816;2024-01-11T03:05:20;-6.90;99.90
9383;DHT22;4731;49.708;10.816;2024-01-11T03:07:47;-6.80;99.90
9383;DHT22;4731;49.708;10.816;2024-01-11T03:10:14;-6.80;99.90
9383;DHT22;4731;49.708;10.816;2024-01-11T03:12:42;-4.40;99.90
9383;DHT22;4731;49.708;10.816;2024-01-11T03:15:09;-6.70;99.90
9383;DHT22;4731;49.708;10.816;2024-01-11T03:17:37;-6.80;99.90
9383;DHT22;4731;49.708;10.816;2024-01-11T03:20:04;-6.80;99.90
9383;DHT22;4731;49.708;10.816;2024-01-11T03:22:31;-6.90;99.90
9383;DHT22;4731;49.708;10.816;2024-01-11T03:24:58;-6.90;99.90
9383;DHT22;4731;49.708;10.816;2024-01-11T03:27:25;-5.60;99.90
9383;DHT22;4731;49.708;10.816;2024-01-11T03:29:52;-7.00;99.90
9383;DHT22;4731;49.708;10.816;2024-01-11T03:32:19;-7.00;99.90
9383;DHT22;4731;49.708;10.816;2024-01-11T03:34:47;-7.10;99.90
9383;DHT22;4731;49.708;10.816;2024-01-11T03:37:14;-7.10;99.90
9383;DHT22;4731;49.708;10.816;2024-01-11T03:39:42;-7.20;99.90
9383;DHT22;4731;49.708;10.816;2024-01-11T03:42:09;-7.30;99.90
9383;DHT22;4731;49.708;10.816;2024-01-11T03:44:36;-7.30;99.90
9383;DHT22;4731;49.708;10.816;2024-01-11T03:49:30;-7.40;99.90
9383;DHT22;4731;49.708;10.816;2024-01-11T03:51:58;-7.40;99.90
9383;DHT22;4731;49.708;10.816;2024-01-11T03:54:25;-5.00;99.90
9383;DHT22;4731;49.708;10.816;2024-01-11T03:56:52;-7.40;99.90
9383;DHT22;4731;49.708;10.816;2024-01-11T03:59:19;-7.50;99.90
9383;DHT22;4731;49.708;10.816;2024-01-11T04:01:46;-7.50;99.90
9383;DHT22;4731;49.708;10.816;2024-01-11T04:04:14;-7.40;99.90
9383;DHT22;4731;49.708;10.816;2024-01-11T04:06:41;-7.40;99.90
9383;DHT22;4731;49.708;10.816;2024-01-11T04:09:09;-7.40;99.90
9383;DHT22;4731;49.708;10.816;2024-01-11T04:11:36;-7.40;99.90
9383;DHT22;4731;49.708;10.816;2024-01-11T04:14:02;-6.70;99.90
9383;DHT22;4731;49.708;10.816;2024-01-11T04:16:29;-7.40;99.90
9383;DHT22;4731;49.708;10.816;2024-01-11T04:18:56;-7.40;99.90
9383;DHT22;4731;49.708;10.816;2024-01-11T04:21:24;-7.40;99.90
9383;DHT22;4731;49.708;10.816;2024-01-11T04:23:53;-7.40;99.90
9383;DHT22;4731;49.708;10.816;2024-01-11T04:26:22;-7.30;99.90
9383;DHT22;4731;49.708;10.816;2024-01-11T04:28:50;-7.40;99.90
9383;DHT22;4731;49.708;10.816;2024-01-11T04:31:17;-5.70;99.90
9383;DHT22;4731;49.708;10.816;2024-01-11T04:33:45;-7.40;99.90
9383;DHT22;4731;49.708;10.816;2024-01-11T04:36:12;-7.50;99.90
9383;DHT22;4731;49.708;10.816;2024-01-11T04:38:39;-7.50;99.90
9383;DHT22;4731;49.708;10.816;2024-01-11T04:41:07;-7.60;99.90
9383;DHT22;4731;49.708;10.816;2024-01-11T04:46:12;-7.70;99.90
9383;DHT22;4731;49.708;10.816;2024-01-11T04:48:39;-7.70;99.90
9383;DHT22;4731;49.708;10.816;2024-01-11T04:51:06;-7.70;99.90
9383;DHT22;4731;49.708;10.816;2024-01-11T04:53:36;-7.80;99.90
9383;DHT22;4731;49.708;10.816;2024-01-11T04:56:04;-7.80;99.90
9383;DHT22;4731;49.708;10.816;2024-01-11T04:58:31;-5.60;99.90
9383;DHT22;4731;49.708;10.816;2024-01-11T05:00:59;-7.80;99.90
9383;DHT22;4731;49.708;10.816;2024-01-11T05:03:27;-7.80;99.90
9383;DHT22;4731;49.708;10.816;2024-01-11T05:05:54;-7.80;99.90
9383;DHT22;4731;49.708;10.816;2024-01-11T05:08:21;-7.80;99.90
9383;DHT22;4731;49.708;10.816;2024-01-11T05:10:48;-7.80;99.90
9383;DHT22;4731;49.708;10.816;2024-01-11T05:13:15;-7.80;99.90
9383;DHT22;4731;49.708;10.816;2024-01-11T05:15:42;-7.90;99.90
9383;DHT22;4731;49.708;10.816;2024-01-11T05:18:11;-7.80;99.90
9383;DHT22;4731;49.708;10.816;2024-01-11T05:20:38;-7.80;99.90
9383;DHT22;4731;49.708;10.816;2024-01-11T05:23:05;-7.80;99.90
9383;DHT22;4731;49.708;10.816;2024-01-11T05:25:32;-5.80;99.90
9383;DHT22;4731;49.708;10.816;2024-01-11T05:28:00;-7.80;99.90
9383;DHT22;4731;49.708;10.816;2024-01-11T05:30:27;-7.80;99.90
9383;DHT22;4731;49.708;10.816;2024-01-11T05:32:54;-7.80;99.90
9383;DHT22;4731;49.708;10.816;2024-01-11T05:35:22;-7.80;99.90
9383;DHT22;4731;49.708;10.816;2024-01-11T05:37:52;-7.80;99.90
9383;DHT22;4731;49.708;10.816;2024-01-11T05:40:20;-5.80;99.90
9383;DHT22;4731;49.708;10.816;2024-01-11T05:42:47;-7.80;99.90
9383;DHT22;4731;49.708;10.816;2024-01-11T05:45:14;-7.80;99.90
9383;DHT22;4731;49.708;10.816;2024-01-11T05:47:42;-7.90;99.90
9383;DHT22;4731;49.708;10.816;2024-01-11T05:50:09;-7.90;99.90
9383;DHT22;4731;49.708;10.816;2024-01-11T05:52:38;-7.10;99.90
9383;DHT22;4731;49.708;10.816;2024-01-11T05:55:05;-7.90;99.90
9383;DHT22;4731;49.708;10.816;2024-01-11T05:57:32;-7.90;99.90
9383;DHT22;4731;49.708;10.816;2024-01-11T06:00:00;-7.90;99.90
9383;DHT22;4731;49.708;10.816;2024-01-11T06:02:26;-7.90;99.90
9383;DHT22;4731;49.708;10.816;2024-01-11T06:04:53;-8.00;99.90
9383;DHT22;4731;49.708;10.816;2024-01-11T06:07:20;-8.00;99.90
9383;DHT22;4731;49.708;10.816;2024-01-11T06:09:48;-8.00;99.90
9383;DHT22;4731;49.708;10.816;2024-01-11T06:12:15;-8.10;99.90
9383;DHT22;4731;49.708;10.816;2024-01-11T06:14:42;-8.10;99.90
9383;DHT22;4731;49.708;10.816;2024-01-11T06:17:09;-8.10;99.90
9383;DHT22;4731;49.708;10.816;2024-01-11T06:19:37;-8.10;99.90
9383;DHT22;4731;49.708;10.816;2024-01-11T06:22:04;-8.20;99.90
9383;DHT22;4731;49.708;10.816;2024-01-11T06:24:31;-8.20;99.90
9383;DHT22;4731;49.708;10.816;2024-01-11T06:26:59;-8.20;99.90
9383;DHT22;4731;49.708;10.816;2024-01-11T06:29:27;-8.20;99.90
9383;DHT22;4731;49.708;10.816;2024-01-11T06:31:55;-7.50;99.90
9383;DHT22;4731;49.708;10.816;2024-01-11T06:34:22;-8.20;99.90
9383;DHT22;4731;49.708;10.816;2024-01-11T06:36:49;-8.20;99.90
9383;DHT22;4731;49.708;10.816;2024-01-11T06:39:16;-8.20;99.90
9383;DHT22;4731;49.708;10.816;2024-01-11T06:41:43;-8.30;99.90
9383;DHT22;4731;49.708;10.816;2024-01-11T06:44:11;-8.20;99.90
9383;DHT22;4731;49.708;10.816;2024-01-11T06:46:38;-8.20;99.90
9383;DHT22;4731;49.708;10.816;2024-01-11T06:49:06;-8.20;99.90
9383;DHT22;4731;49.708;10.816;2024-01-11T06:51:33;-8.20;99.90
9383;DHT22;4731;49.708;10.816;2024-01-11T06:54:00;-8.00;99.90
9383;DHT22;4731;49.708;10.816;2024-01-11T06:56:27;-8.10;99.90
9383;DHT22;4731;49.708;10.816;2024-01-11T06:58:55;-8.10;99.90
9383;DHT22;4731;49.708;10.816;2024-01-11T07:01:23;-8.10;99.90
9383;DHT22;4731;49.708;10.816;2024-01-11T07:03:51;-8.10;99.90
9383;DHT22;4731;49.708;10.816;2024-01-11T07:06:17;-8.10;99.90
9383;DHT22;4731;49.708;10.816;2024-01-11T07:08:44;-8.10;99.90
9383;DHT22;4731;49.708;10.816;2024-01-11T07:11:11;-8.10;99.90
9383;DHT22;4731;49.708;10.816;2024-01-11T07:13:39;-8.10;99.90
9383;DHT22;4731;49.708;10.816;2024-01-11T07:16:06;-8.10;99.90
9383;DHT22;4731;49.708;10.816;2024-01-11T07:18:34;-8.10;99.90
9383;DHT22;4731;49.708;10.816;2024-01-11T07:21:01;-8.00;99.90
9383;DHT22;4731;49.708;10.816;2024-01-11T07:23:29;-7.10;99.90
9383;DHT22;4731;49.708;10.816;2024-01-11T07:25:56;-8.00;99.90
9383;DHT22;4731;49.708;10.816;2024-01-11T07:28:23;-5.40;99.90
9383;DHT22;4731;49.708;10.816;2024-01-11T07:30:51;-7.90;99.90
9383;DHT22;4731;49.708;10.816;2024-01-11T07:33:18;-6.80;99.90
9383;DHT22;4731;49.708;10.816;2024-01-11T07:35:47;-7.80;99.90
9383;DHT22;4731;49.708;10.816;2024-01-11T07:38:14;-7.70;99.90
9383;DHT22;4731;49.708;10.816;2024-01-11T07:40:41;-7.60;99.90
9383;DHT22;4731;49.708;10.816;2024-01-11T07:43:08;-7.50;99.90
9383;DHT22;4731;49.708;10.816;2024-01-11T07:45:35;-7.50;99.90
9383;DHT22;4731;49.708;10.816;2024-01-11T07:48:02;-7.30;99.90
9383;DHT22;4731;49.708;10.816;2024-01-11T07:50:30;-7.20;99.90
9383;DHT22;4731;49.708;10.816;2024-01-11T07:52:59;-8.10;99.90
9383;DHT22;4731;49.708;10.816;2024-01-11T07:55:26;-6.80;99.90
9383;DHT22;4731;49.708;10.816;2024-01-11T07:57:53;-6.60;99.90
9383;DHT22;4731;49.708;10.816;2024-01-11T08:00:20;-6.10;99.90
9383;DHT22;4731;49.708;10.816;2024-01-11T08:02:47;-5.00;99.90
9383;DHT22;4731;49.708;10.816;2024-01-11T08:05:14;-3.50;99.90
9383;DHT22;4731;49.708;10.816;2024-01-11T08:07:41;-1.50;99.90
9383;DHT22;4731;49.708;10.816;2024-01-11T08:10:10;0.40;99.90
9383;DHT22;4731;49.708;10.816;2024-01-11T08:12:37;2.00;99.90
9383;DHT22;4731;49.708;10.816;2024-01-11T08:15:05;3.40;99.90
9383;DHT22;4731;49.708;10.816;2024-01-11T08:17:32;4.20;99.90
9383;DHT22;4731;49.708;10.816;2024-01-11T08:19:59;5.60;99.90
9383;DHT22;4731;49.708;10.816;2024-01-11T08:22:26;6.80;99.90
9383;DHT22;4731;49.708;10.816;2024-01-11T08:24:53;7.30;99.90
9383;DHT22;4731;49.708;10.816;2024-01-11T08:27:23;8.20;99.90
9383;DHT22;4731;49.708;10.816;2024-01-11T08:29:50;7.90;99.90
9383;DHT22;4731;49.708;10.816;2024-01-11T08:32:17;8.20;99.90
9383;DHT22;4731;49.708;10.816;2024-01-11T08:34:44;9.10;99.90
9383;DHT22;4731;49.708;10.816;2024-01-11T08:37:11;9.50;99.40
9383;DHT22;4731;49.708;10.816;2024-01-11T08:39:37;9.50;98.40
9383;DHT22;4731;49.708;10.816;2024-01-11T08:42:05;9.90;97.40
9383;DHT22;4731;49.708;10.816;2024-01-11T08:44:33;10.40;96.80
9383;DHT22;4731;49.708;10.816;2024-01-11T08:47:00;10.60;95.20
9383;DHT22;4731;49.708;10.816;2024-01-11T08:49:29;12.50;94.10
9383;DHT22;4731;49.708;10.816;2024-01-11T08:51:55;12.70;90.60
9383;DHT22;4731;49.708;10.816;2024-01-11T08:54:22;13.10;89.40
9383;DHT22;4731;49.708;10.816;2024-01-11T08:56:49;13.70;85.10
9383;DHT22;4731;49.708;10.816;2024-01-11T08:59:16;14.30;80.10
9383;DHT22;4731;49.708;10.816;2024-01-11T09:01:44;14.60;77.60
9383;DHT22;4731;49.708;10.816;2024-01-11T09:04:12;13.70;73.90
9383;DHT22;4731;49.708;10.816;2024-01-11T09:06:39;14.30;74.80
9383;DHT22;4731;49.708;10.816;2024-01-11T09:09:05;15.00;72.60
9383;DHT22;4731;49.708;10.816;2024-01-11T09:11:35;15.00;72.10
9383;DHT22;4731;49.708;10.816;2024-01-11T09:14:02;15.50;69.20
9383;DHT22;4731;49.708;10.816;2024-01-11T09:16:29;14.80;68.40
9383;DHT22;4731;49.708;10.816;2024-01-11T09:18:57;15.00;68.60
9383;DHT22;4731;49.708;10.816;2024-01-11T09:21:25;18.30;70.80
9383;DHT22;4731;49.708;10.816;2024-01-11T09:23:52;16.60;66.00
9383;DHT22;4731;49.708;10.816;2024-01-11T09:26:19;16.50;64.40
9383;DHT22;4731;49.708;10.816;2024-01-11T09:28:45;16.10;64.60
9383;DHT22;4731;49.708;10.816;2024-01-11T09:31:13;16.50;66.60
9383;DHT22;4731;49.708;10.816;2024-01-11T09:33:39;16.90;64.10
9383;DHT22;4731;49.708;10.816;2024-01-11T09:36:09;18.20;63.20
9383;DHT22;4731;49.708;10.816;2024-01-11T09:38:36;19.20;60.70
9383;DHT22;4731;49.708;10.816;2024-01-11T09:41:06;19.70;58.50
9383;DHT22;4731;49.708;10.816;2024-01-11T09:43:34;20.80;58.00
9383;DHT22;4731;49.708;10.816;2024-01-11T09:46:03;21.40;53.90
9383;DHT22;4731;49.708;10.816;2024-01-11T09:48:32;21.60;52.90
9383;DHT22;4731;49.708;10.816;2024-01-11T09:50:59;21.80;53.40
9383;DHT22;4731;49.708;10.816;2024-01-11T09:53:29;23.50;53.40
9383;DHT22;4731;49.708;10.816;2024-01-11T09:55:58;21.50;49.90
9383;DHT22;4731;49.708;10.816;2024-01-11T09:58:25;19.90;50.60
9383;DHT22;4731;49.708;10.816;2024-01-11T10:00:54;18.50;51.70
9383;DHT22;4731;49.708;10.816;2024-01-11T10:03:23;18.50;52.90
9383;DHT22;4731;49.708;10.816;2024-01-11T10:05:50;19.30;52.90
9383;DHT22;4731;49.708;10.816;2024-01-11T10:08:20;20.30;53.20
9383;DHT22;4731;49.708;10.816;2024-01-11T10:10:49;21.80;53.80
9383;DHT22;4731;49.708;10.816;2024-01-11T10:13:16;21.00;52.00
9383;DHT22;4731;49.708;10.816;2024-01-11T10:15:43;23.20;52.30
9383;DHT22;4731;49.708;10.816;2024-01-11T10:18:10;24.20;51.20
9383;DHT22;4731;49.708;10.816;2024-01-11T10:20:37;22.50;49.30
9383;DHT22;4731;49.708;10.816;2024-01-11T10:23:04;21.30;47.70
9383;DHT22;4731;49.708;10.816;2024-01-11T10:25:31;21.40;49.10
9383;DHT22;4731;49.708;10.816;2024-01-11T10:27:59;22.50;49.60
9383;DHT22;4731;49.708;10.816;2024-01-11T10:30:26;23.80;49.20
9383;DHT22;4731;49.708;10.816;2024-01-11T10:32:53;25.00;47.70
9383;DHT22;4731;49.708;10.816;2024-01-11T10:35:20;25.80;47.00
9383;DHT22;4731;49.708;10.816;2024-01-11T10:37:51;26.40;45.00
9383;DHT22;4731;49.708;10.816;2024-01-11T10:40:20;25.00;44.10
9383;DHT22;4731;49.708;10.816;2024-01-11T10:42:51;25.10;44.20
9383;DHT22;4731;49.708;10.816;2024-01-11T10:45:20;22.80;44.00
9383;DHT22;4731;49.708;10.816;2024-01-11T10:47:54;19.20;45.30
9383;DHT22;4731;49.708;10.816;2024-01-11T10:50:23;19.70;47.70
9383;DHT22;4731;49.708;10.816;2024-01-11T10:53:01;22.20;47.10
9383;DHT22;4731;49.708;10.816;2024-01-11T10:55:31;25.30;48.00
9383;DHT22;4731;49.708;10.816;2024-01-11T10:57:59;23.30;46.20
9383;DHT22;4731;49.708;10.816;2024-01-11T11:00:28;23.50;45.90
9383;DHT22;4731;49.708;10.816;2024-01-11T11:02:55;24.20;45.30
9383;DHT22;4731;49.708;10.816;2024-01-11T11:05:24;25.10;45.90
9383;DHT22;4731;49.708;10.816;2024-01-11T11:07:53;24.80;45.80
9383;DHT22;4731;49.708;10.816;2024-01-11T11:10:21;26.60;46.10
9383;DHT22;4731;49.708;10.816;2024-01-11T11:12:49;25.80;44.50
9383;DHT22;4731;49.708;10.816;2024-01-11T11:15:16;25.50;43.90
9383;DHT22;4731;49.708;10.816;2024-01-11T11:17:44;22.80;42.80
9383;DHT22;4731;49.708;10.816;2024-01-11T11:20:12;21.80;45.50
9383;DHT22;4731;49.708;10.816;2024-01-11T11:22:40;22.50;45.80
9383;DHT22;4731;49.708;10.816;2024-01-11T11:25:08;23.90;47.70
9383;DHT22;4731;49.708;10.816;2024-01-11T11:27:35;20.60;46.40
9383;DHT22;4731;49.708;10.816;2024-01-11T11:30:03;21.80;47.00
9383;DHT22;4731;49.708;10.816;2024-01-11T11:32:37;22.20;45.50
9383;DHT22;4731;49.708;10.816;2024-01-11T11:35:06;20.60;46.00
9383;DHT22;4731;49.708;10.816;2024-01-11T11:37:35;22.00;46.70
9383;DHT22;4731;49.708;10.816;2024-01-11T11:40:03;22.00;46.10
9383;DHT22;4731;49.708;10.816;2024-01-11T11:42:30;21.50;46.10
9383;DHT22;4731;49.708;10.816;2024-01-11T11:44:58;22.80;48.20
9383;DHT22;4731;49.708;10.816;2024-01-11T11:47:24;22.90;46.70
9383;DHT22;4731;49.708;10.816;2024-01-11T11:50:03;24.90;47.20
9383;DHT22;4731;49.708;10.816;2024-01-11T11:52:33;24.00;45.40
9383;DHT22;4731;49.708;10.816;2024-01-11T11:55:01;24.40;44.80
9383;DHT22;4731;49.708;10.816;2024-01-11T11:57:28;26.60;46.10
9383;DHT22;4731;49.708;10.816;2024-01-11T11:59:56;24.20;44.70
9383;DHT22;4731;49.708;10.816;2024-01-11T12:02:25;22.80;44.30
9383;DHT22;4731;49.708;10.816;2024-01-11T12:04:52;21.60;44.00
9383;DHT22;4731;49.708;10.816;2024-01-11T12:07:19;21.60;45.00
9383;DHT22;4731;49.708;10.816;2024-01-11T12:09:47;22.10;46.00
9383;DHT22;4731;49.708;10.816;2024-01-11T12:12:14;21.00;44.50
9383;DHT22;4731;49.708;10.816;2024-01-11T12:14:42;22.30;44.70
9383;DHT22;4731;49.708;10.816;2024-01-11T12:17:09;21.80;43.50
9383;DHT22;4731;49.708;10.816;2024-01-11T12:19:36;23.00;44.00
9383;DHT22;4731;49.708;10.816;2024-01-11T12:22:03;22.60;44.50
9383;DHT22;4731;49.708;10.816;2024-01-11T12:24:30;23.20;44.50
9383;DHT22;4731;49.708;10.816;2024-01-11T12:27:00;23.00;44.10
9383;DHT22;4731;49.708;10.816;2024-01-11T12:29:28;22.40;44.00
9383;DHT22;4731;49.708;10.816;2024-01-11T12:31:56;21.70;45.00
9383;DHT22;4731;49.708;10.816;2024-01-11T12:34:24;22.40;45.40
9383;DHT22;4731;49.708;10.816;2024-01-11T12:36:51;24.20;46.00
9383;DHT22;4731;49.708;10.816;2024-01-11T12:39:19;23.70;44.70
9383;DHT22;4731;49.708;10.816;2024-01-11T12:41:48;24.80;44.50
9383;DHT22;4731;49.708;10.816;2024-01-11T12:44:17;22.50;44.00
9383;DHT22;4731;49.708;10.816;2024-01-11T12:46:45;22.70;45.00
9383;DHT22;4731;49.708;10.816;2024-01-11T12:49:11;23.70;45.00
9383;DHT22;4731;49.708;10.816;2024-01-11T12:51:39;24.00;44.60
9383;DHT22;4731;49.708;10.816;2024-01-11T12:54:11;20.70;42.50
9383;DHT22;4731;49.708;10.816;2024-01-11T12:56:40;22.80;45.00
9383;DHT22;4731;49.708;10.816;2024-01-11T12:59:08;22.80;44.50
9383;DHT22;4731;49.708;10.816;2024-01-11T13:01:36;23.20;45.10
9383;DHT22;4731;49.708;10.816;2024-01-11T13:04:03;22.50;44.30
9383;DHT22;4731;49.708;10.816;2024-01-11T13:06:31;22.70;46.30
9383;DHT22;4731;49.708;10.816;2024-01-11T13:08:58;20.10;45.70
9383;DHT22;4731;49.708;10.816;2024-01-11T13:11:24;19.20;46.90
9383;DHT22;4731;49.708;10.816;2024-01-11T13:13:52;20.90;46.90
9383;DHT22;4731;49.708;10.816;2024-01-11T13:16:18;23.90;47.60
9383;DHT22;4731;49.708;10.816;2024-01-11T13:18:46;22.70;45.40
9383;DHT22;4731;49.708;10.816;2024-01-11T13:21:13;22.30;45.50
9383;DHT22;4731;49.708;10.816;2024-01-11T13:23:40;21.00;45.50
9383;DHT22;4731;49.708;10.816;2024-01-11T13:26:07;19.10;45.30
9383;DHT22;4731;49.708;10.816;2024-01-11T13:28:34;18.00;46.60
9383;DHT22;4731;49.708;10.816;2024-01-11T13:31:01;19.10;46.50
9383;DHT22;4731;49.708;10.816;2024-01-11T13:33:28;20.70;47.00
9383;DHT22;4731;49.708;10.816;2024-01-11T13:35:56;20.30;46.10
9383;DHT22;4731;49.708;10.816;2024-01-11T13:38:23;20.70;46.20
9383;DHT22;4731;49.708;10.816;2024-01-11T13:40:50;20.60;45.60
9383;DHT22;4731;49.708;10.816;2024-01-11T13:43:19;20.40;46.40
9383;DHT22;4731;49.708;10.816;2024-01-11T13:45:48;20.90;46.20
9383;DHT22;4731;49.708;10.816;2024-01-11T13:48:15;21.10;45.40
9383;DHT22;4731;49.708;10.816;2024-01-11T13:50:41;21.70;45.90
9383;DHT22;4731;49.708;10.816;2024-01-11T13:53:10;20.60;45.90
9383;DHT22;4731;49.708;10.816;2024-01-11T13:55:36;21.40;46.00
9383;DHT22;4731;49.708;10.816;2024-01-11T13:58:04;20.80;46.10
9383;DHT22;4731;49.708;10.816;2024-01-11T14:00:31;20.50;46.50
9383;DHT22;4731;49.708;10.816;2024-01-11T14:02:57;21.40;46.70
9383;DHT22;4731;49.708;10.816;2024-01-11T14:05:24;22.50;47.60
9383;DHT22;4731;49.708;10.816;2024-01-11T14:07:52;19.70;46.20
9383;DHT22;4731;49.708;10.816;2024-01-11T14:10:25;19.40;48.30
9383;DHT22;4731;49.708;10.816;2024-01-11T14:12:52;16.00;47.80
9383;DHT22;4731;49.708;10.816;2024-01-11T14:15:19;15.30;49.80
9383;DHT22;4731;49.708;10.816;2024-01-11T14:17:46;13.20;50.80
9383;DHT22;4731;49.708;10.816;2024-01-11T14:20:13;10.50;53.00
9383;DHT22;4731;49.708;10.816;2024-01-11T14:22:40;9.10;56.90
9383;DHT22;4731;49.708;10.816;2024-01-11T14:25:08;8.20;58.80
9383;DHT22;4731;49.708;10.816;2024-01-11T14:27:37;7.50;60.90
9383;DHT22;4731;49.708;10.816;2024-01-11T14:30:05;6.80;63.70
9383;DHT22;4731;49.708;10.816;2024-01-11T14:32:32;6.50;65.40
9383;DHT22;4731;49.708;10.816;2024-01-11T14:35:00;5.70;68.30
9383;DHT22;4731;49.708;10.816;2024-01-11T14:37:30;5.10;71.00
9383;DHT22;4731;49.708;10.816;2024-01-11T14:39:57;5.00;72.90
9383;DHT22;4731;49.708;10.816;2024-01-11T14:42:24;4.60;75.20
9383;DHT22;4731;49.708;10.816;2024-01-11T14:44:53;4.20;78.20
9383;DHT22;4731;49.708;10.816;2024-01-11T14:47:20;3.90;80.40
9383;DHT22;4731;49.708;10.816;2024-01-11T14:49:47;3.90;84.50
9383;DHT22;4731;49.708;10.816;2024-01-11T14:52:14;3.80;85.10
9383;DHT22;4731;49.708;10.816;2024-01-11T14:54:42;3.80;87.00
9383;DHT22;4731;49.708;10.816;2024-01-11T14:57:09;4.10;87.90
9383;DHT22;4731;49.708;10.816;2024-01-11T14:59:35;4.30;88.30
9383;DHT22;4731;49.708;10.816;2024-01-11T15:02:04;4.30;88.80
9383;DHT22;4731;49.708;10.816;2024-01-11T15:04:30;4.50;89.40
9383;DHT22;4731;49.708;10.816;2024-01-11T15:06:57;4.80;90.10
9383;DHT22;4731;49.708;10.816;2024-01-11T15:09:24;5.60;88.20
9383;DHT22;4731;49.708;10.816;2024-01-11T15:11:51;6.20;85.00
9383;DHT22;4731;49.708;10.816;2024-01-11T15:14:18;6.30;82.10
9383;DHT22;4731;49.708;10.816;2024-01-11T15:16:45;5.70;82.90
9383;DHT22;4731;49.708;10.816;2024-01-11T15:19:14;4.70;86.80
9383;DHT22;4731;49.708;10.816;2024-01-11T15:21:41;3.40;92.10
9383;DHT22;4731;49.708;10.816;2024-01-11T15:24:08;3.40;92.50
9383;DHT22;4731;49.708;10.816;2024-01-11T15:26:35;3.10;94.40
9383;DHT22;4731;49.708;10.816;2024-01-11T15:29:02;2.90;96.20
9383;DHT22;4731;49.708;10.816;2024-01-11T15:31:28;4.20;98.60
9383;DHT22;4731;49.708;10.816;2024-01-11T15:33:56;2.60;99.30
9383;DHT22;4731;49.708;10.816;2024-01-11T15:36:28;2.30;99.90
9383;DHT22;4731;49.708;10.816;2024-01-11T15:38:55;2.10;99.90
9383;DHT22;4731;49.708;10.816;2024-01-11T15:41:21;1.90;99.90
9383;DHT22;4731;49.708;10.816;2024-01-11T15:43:48;1.70;99.90
9383;DHT22;4731;49.708;10.816;2024-01-11T15:46:16;1.50;99.90
9383;DHT22;4731;49.708;10.816;2024-01-11T15:48:42;1.30;99.90
9383;DHT22;4731;49.708;10.816;2024-01-11T15:51:09;1.20;99.90
9383;DHT22;4731;49.708;10.816;2024-01-11T15:53:37;1.10;99.90
9383;DHT22;4731;49.708;10.816;2024-01-11T15:56:05;0.90;99.90